createdAt,value
2023-03-20T00:02:03.227Z,22.35
2023-03-20T00:04:30.808Z,21.00
2023-03-20T00:06:58.306Z,22.95
2023-03-20T00:09:28.618Z,36.58
2023-03-20T00:11:56.768Z,28.65
2023-03-20T00:14:25.262Z,32.38
2023-03-20T00:16:53.158Z,47.13
2023-03-20T00:19:26.361Z,47.85
2023-03-20T00:21:55.244Z,44.55
2023-03-20T00:24:23.019Z,46.72
2023-03-20T00:26:51.882Z,66.35
2023-03-20T00:29:27.878Z,54.17
2023-03-20T00:31:56.099Z,46.35
2023-03-20T00:34:26.142Z,39.72
2023-03-20T00:36:54.683Z,46.25
2023-03-20T00:39:22.284Z,45.97
2023-03-20T00:41:56.688Z,51.78
2023-03-20T00:44:26.749Z,47.00
2023-03-20T00:47:18.688Z,35.05
2023-03-20T00:49:51.701Z,47.47
2023-03-20T00:52:20.376Z,44.40
2023-03-20T00:54:47.447Z,45.45
2023-03-20T00:57:18.151Z,46.75
2023-03-20T00:59:58.239Z,41.90
2023-03-20T01:02:29.248Z,48.92
2023-03-20T01:04:56.938Z,43.70
2023-03-20T01:07:26.752Z,41.88
2023-03-20T01:09:53.787Z,51.95
2023-03-20T01:12:21.320Z,39.03
2023-03-20T01:14:54.895Z,46.47
2023-03-20T01:17:23.988Z,47.75
2023-03-20T01:19:51.394Z,42.05
2023-03-20T01:22:18.784Z,64.93
2023-03-20T01:24:46.346Z,74.13
2023-03-20T01:27:19.801Z,40.97
2023-03-20T01:29:47.582Z,48.97
2023-03-20T01:32:20.176Z,56.17
2023-03-20T01:34:53.258Z,38.30
2023-03-20T01:37:27.100Z,43.80
2023-03-20T01:39:57.703Z,34.03
2023-03-20T01:42:25.397Z,31.60
2023-03-20T01:44:52.992Z,44.70
2023-03-20T01:47:24.289Z,42.72
2023-03-20T01:50:17.026Z,43.03
2023-03-20T01:52:46.394Z,47.55
2023-03-20T01:55:14.040Z,41.10
2023-03-20T01:57:44.451Z,40.80
2023-03-20T02:00:15.738Z,44.25
2023-03-20T02:02:46.615Z,30.33
2023-03-20T02:05:28.362Z,33.08
2023-03-20T02:08:18.074Z,24.88
2023-03-20T02:10:47.245Z,21.25
2023-03-20T02:13:23.154Z,23.15
2023-03-20T02:16:13.436Z,20.85
2023-03-20T02:18:59.195Z,26.73
2023-03-20T02:21:54.308Z,24.58
2023-03-20T02:24:55.163Z,27.73
2023-03-20T02:27:28.951Z,23.25
2023-03-20T02:30:26.040Z,30.38
2023-03-20T02:33:42.617Z,18.13
2023-03-20T02:36:25.027Z,27.63
2023-03-20T02:38:52.338Z,21.70
2023-03-20T02:41:41.528Z,24.23
2023-03-20T02:44:08.682Z,35.65
2023-03-20T02:46:54.949Z,30.05
2023-03-20T02:49:42.977Z,24.90
2023-03-20T02:52:18.779Z,24.75
2023-03-20T02:55:08.073Z,22.85
2023-03-20T02:58:04.959Z,25.35
2023-03-20T03:00:41.212Z,26.17
2023-03-20T03:03:32.361Z,19.70
2023-03-20T03:06:09.901Z,27.75
2023-03-20T03:08:45.079Z,22.13
2023-03-20T03:11:16.701Z,36.40
2023-03-20T03:13:52.034Z,37.97
2023-03-20T03:16:30.990Z,45.00
2023-03-20T03:19:19.132Z,40.08
2023-03-20T03:21:48.463Z,39.88
2023-03-20T03:24:42.704Z,32.35
2023-03-20T03:27:20.089Z,35.22
2023-03-20T03:30:01.382Z,29.58
2023-03-20T03:32:36.986Z,27.08
2023-03-20T03:35:07.778Z,24.70
2023-03-20T03:38:24.362Z,33.70
2023-03-20T03:41:10.596Z,45.80
2023-03-20T03:44:08.947Z,27.42
2023-03-20T03:46:44.946Z,31.48
2023-03-20T03:49:19.603Z,30.65
2023-03-20T03:51:51.381Z,24.45
2023-03-20T03:54:25.724Z,25.42
2023-03-20T03:57:16.953Z,36.70
2023-03-20T03:59:49.914Z,27.67
2023-03-20T04:02:19.971Z,24.42
2023-03-20T04:04:51.484Z,28.30
2023-03-20T04:07:19.268Z,24.75
2023-03-20T04:09:46.515Z,24.15
2023-03-20T04:12:34.960Z,24.55
2023-03-20T04:15:03.398Z,22.40
2023-03-20T04:17:33.082Z,31.40
2023-03-20T04:20:01.286Z,26.35
2023-03-20T04:22:28.529Z,29.25
2023-03-20T04:24:59.621Z,27.48
2023-03-20T04:27:29.166Z,23.83
2023-03-20T04:29:57.566Z,26.35
2023-03-20T04:32:43.560Z,23.17
2023-03-20T04:35:31.211Z,22.52
2023-03-20T04:38:03.846Z,33.15
2023-03-20T04:40:33.703Z,30.27
2023-03-20T04:43:01.065Z,30.23
2023-03-20T04:45:28.299Z,22.25
2023-03-20T04:47:55.689Z,29.60
2023-03-20T04:50:24.053Z,26.83
2023-03-20T04:52:52.713Z,29.83
2023-03-20T04:55:20.828Z,24.75
2023-03-20T04:57:49.650Z,26.83
2023-03-20T05:00:18.981Z,28.33
2023-03-20T05:02:47.141Z,23.98
2023-03-20T05:05:16.378Z,20.15
2023-03-20T05:07:44.335Z,23.63
2023-03-20T05:10:17.771Z,20.95
2023-03-20T05:13:00.202Z,23.20
2023-03-20T05:15:50.448Z,20.33
2023-03-20T05:18:32.422Z,21.27
2023-03-20T05:21:17.466Z,23.88
2023-03-20T05:24:11.808Z,20.85
2023-03-20T05:26:58.205Z,21.70
2023-03-20T05:29:44.109Z,23.60
2023-03-20T05:32:33.106Z,24.58
2023-03-20T05:35:29.600Z,22.70
2023-03-20T05:38:22.957Z,18.75
2023-03-20T05:41:04.253Z,26.50
2023-03-20T05:43:52.146Z,23.98
2023-03-20T05:46:33.934Z,18.67
2023-03-20T05:49:22.157Z,21.58
2023-03-20T05:52:17.527Z,21.05
2023-03-20T05:55:13.705Z,19.63
2023-03-20T05:57:52.402Z,16.80
2023-03-20T06:00:47.160Z,14.82
2023-03-20T06:03:33.525Z,15.23
2023-03-20T06:06:08.882Z,14.95
2023-03-20T06:08:36.949Z,11.75
2023-03-20T06:11:04.706Z,10.60
2023-03-20T06:13:35.899Z,11.23
2023-03-20T06:16:05.618Z,10.82
2023-03-20T06:18:33.210Z,12.00
2023-03-20T06:21:00.556Z,10.73
2023-03-20T06:23:31.805Z,10.77
2023-03-20T06:26:01.380Z,12.82
2023-03-20T06:28:30.415Z,9.57
2023-03-20T06:31:02.999Z,12.18
2023-03-20T06:33:30.376Z,13.30
2023-03-20T06:36:01.021Z,12.00
2023-03-20T06:38:31.719Z,11.65
2023-03-20T06:41:04.520Z,10.82
2023-03-20T06:43:32.631Z,11.23
2023-03-20T06:46:00.832Z,11.88
2023-03-20T06:48:30.653Z,10.30
2023-03-20T06:50:57.960Z,11.23
2023-03-20T06:53:31.266Z,14.68
2023-03-20T06:56:07.146Z,8.15
2023-03-20T06:58:34.656Z,11.20
2023-03-20T07:01:01.993Z,10.68
2023-03-20T07:03:30.591Z,12.65
2023-03-20T07:05:58.944Z,10.85
2023-03-20T07:08:26.556Z,13.93
2023-03-20T07:10:55.654Z,10.43
2023-03-20T07:13:23.084Z,12.73
2023-03-20T07:16:03.773Z,9.82
2023-03-20T07:18:37.389Z,12.32
2023-03-20T07:21:06.998Z,11.07
2023-03-20T07:23:36.078Z,11.05
2023-03-20T07:26:04.311Z,13.52
2023-03-20T07:28:32.781Z,11.68
2023-03-20T07:31:24.582Z,14.43
2023-03-20T07:34:05.010Z,14.27
2023-03-20T07:36:34.306Z,12.25
2023-03-20T07:39:01.615Z,14.88
2023-03-20T07:41:31.506Z,13.85
2023-03-20T07:44:08.169Z,14.20
2023-03-20T07:46:48.456Z,14.38
2023-03-20T07:49:20.944Z,17.13
2023-03-20T07:51:50.109Z,13.10
2023-03-20T07:54:18.329Z,16.00
2023-03-20T07:56:46.021Z,14.10
2023-03-20T07:59:14.448Z,14.52
2023-03-20T08:01:42.006Z,15.27
2023-03-20T08:04:09.986Z,16.23
2023-03-20T08:06:39.821Z,15.65
2023-03-20T08:09:07.774Z,15.30
2023-03-20T08:11:35.378Z,16.40
2023-03-20T08:14:02.891Z,18.25
2023-03-20T08:16:30.860Z,17.30
2023-03-20T08:19:01.579Z,17.48
2023-03-20T08:21:30.338Z,15.80
2023-03-20T08:23:58.573Z,14.63
2023-03-20T08:26:26.166Z,17.02
2023-03-20T08:28:53.761Z,15.27
2023-03-20T08:31:21.147Z,13.90
2023-03-20T08:33:49.073Z,16.33
2023-03-20T08:36:19.856Z,14.52
2023-03-20T08:38:49.373Z,16.08
2023-03-20T08:41:18.537Z,14.65
2023-03-20T08:43:46.925Z,14.82
2023-03-20T08:46:14.224Z,16.55
2023-03-20T08:48:42.054Z,16.73
2023-03-20T08:51:09.702Z,16.08
2023-03-20T08:53:37.075Z,15.00
2023-03-20T08:56:05.603Z,16.17
2023-03-20T08:58:33.229Z,15.68
2023-03-20T09:01:08.901Z,14.20
2023-03-20T09:03:37.496Z,15.38
2023-03-20T09:06:09.439Z,15.45
2023-03-20T09:08:37.360Z,15.40
2023-03-20T09:11:05.596Z,16.50
2023-03-20T09:13:33.174Z,15.57
2023-03-20T09:16:01.307Z,15.80
2023-03-20T09:18:28.918Z,16.08
2023-03-20T09:20:56.991Z,16.17
2023-03-20T09:23:24.505Z,16.63
2023-03-20T09:25:52.163Z,17.30
2023-03-20T09:28:20.014Z,13.00
2023-03-20T09:30:48.887Z,14.50
2023-03-20T09:33:16.954Z,13.35
2023-03-20T09:35:44.739Z,16.05
2023-03-20T09:38:12.986Z,13.13
2023-03-20T09:40:53.835Z,13.43
2023-03-20T09:43:49.100Z,14.85
2023-03-20T09:46:34.537Z,14.55
2023-03-20T09:49:17.390Z,12.80
2023-03-20T09:52:04.982Z,17.27
2023-03-20T09:54:53.133Z,13.50
2023-03-20T09:57:32.917Z,14.77
2023-03-20T10:00:08.745Z,14.45
2023-03-20T10:03:02.406Z,15.63
2023-03-20T10:05:59.701Z,15.82
2023-03-20T10:08:34.839Z,15.68
2023-03-20T10:11:11.121Z,17.80
2023-03-20T10:13:48.708Z,14.27
2023-03-20T10:16:29.479Z,17.30
2023-03-20T10:19:00.014Z,14.13
2023-03-20T10:21:43.591Z,16.55
2023-03-20T10:24:44.824Z,16.02
2023-03-20T10:27:34.395Z,17.48
2023-03-20T10:30:26.509Z,16.63
2023-03-20T10:33:28.167Z,19.40
2023-03-20T10:36:14.208Z,15.98
2023-03-20T10:38:45.929Z,17.92
2023-03-20T10:41:30.881Z,15.27
2023-03-20T10:44:00.670Z,18.20
2023-03-20T10:46:36.046Z,17.48
2023-03-20T10:49:15.944Z,16.63
2023-03-20T10:52:00.629Z,17.00
2023-03-20T10:54:34.253Z,16.35
2023-03-20T10:57:08.476Z,17.27
2023-03-20T10:59:42.526Z,14.35
2023-03-20T11:02:12.795Z,20.05
2023-03-20T11:04:41.249Z,17.73
2023-03-20T11:07:23.446Z,15.98
2023-03-20T11:10:06.988Z,16.73
2023-03-20T11:12:39.824Z,14.38
2023-03-20T11:15:38.016Z,14.30
2023-03-20T11:18:08.440Z,16.38
2023-03-20T11:20:42.116Z,14.82
2023-03-20T11:23:17.121Z,13.40
2023-03-20T11:25:56.178Z,14.48
2023-03-20T11:28:31.794Z,16.08
2023-03-20T11:31:05.401Z,15.25
2023-03-20T11:33:38.855Z,17.75
2023-03-20T11:36:33.477Z,16.98
2023-03-20T11:39:11.778Z,16.20
2023-03-20T11:41:49.807Z,13.55
2023-03-20T11:44:36.982Z,16.08
2023-03-20T11:47:06.857Z,15.10
2023-03-20T11:49:48.646Z,13.18
2023-03-20T11:52:22.480Z,15.20
2023-03-20T11:55:02.432Z,16.05
2023-03-20T11:57:47.162Z,14.23
2023-03-20T12:00:24.288Z,13.10
2023-03-20T12:02:52.594Z,14.70
2023-03-20T12:05:40.617Z,13.63
2023-03-20T12:08:21.303Z,15.52
2023-03-20T12:11:17.914Z,13.70
2023-03-20T12:13:52.495Z,13.10
2023-03-20T12:16:28.341Z,11.73
2023-03-20T12:19:00.969Z,14.55
2023-03-20T12:21:43.872Z,13.20
2023-03-20T12:24:36.918Z,14.10
2023-03-20T12:29:48.024Z,14.60
2023-03-20T12:32:28.757Z,14.20
2023-03-20T12:35:16.734Z,12.75
2023-03-20T12:37:44.625Z,12.60
2023-03-20T12:40:21.119Z,14.27
2023-03-20T12:43:05.665Z,12.18
2023-03-20T12:45:44.702Z,14.25
2023-03-20T12:48:20.793Z,15.18
2023-03-20T12:51:03.672Z,15.07
2023-03-20T12:53:52.381Z,13.45
2023-03-20T12:56:33.877Z,13.43
2023-03-20T12:59:36.355Z,12.77
2023-03-20T13:02:30.685Z,11.70
2023-03-20T13:05:07.666Z,11.60
2023-03-20T13:08:03.480Z,12.20
2023-03-20T13:10:39.977Z,11.23
2023-03-20T13:13:54.733Z,14.02
2023-03-20T13:16:43.927Z,12.10
2023-03-20T13:19:25.310Z,12.00
2023-03-20T13:22:06.871Z,11.93
2023-03-20T13:25:01.928Z,8.93
2023-03-20T13:27:53.624Z,14.57
2023-03-20T13:30:51.126Z,10.02
2023-03-20T13:33:21.606Z,16.55
2023-03-20T13:36:18.952Z,15.35
2023-03-20T13:38:52.606Z,10.00
2023-03-20T13:41:20.557Z,13.65
2023-03-20T13:43:55.245Z,12.73
2023-03-20T13:46:50.196Z,12.55
2023-03-20T13:49:34.262Z,12.68
2023-03-20T13:52:29.978Z,10.93
2023-03-20T13:55:19.611Z,13.30
2023-03-20T13:58:21.444Z,12.45
2023-03-20T14:01:16.949Z,12.63
2023-03-20T14:03:46.953Z,10.93
2023-03-20T14:06:27.231Z,12.43
2023-03-20T14:08:57.658Z,18.05
2023-03-20T14:11:35.849Z,10.57
2023-03-20T14:14:13.851Z,11.73
2023-03-20T14:16:45.000Z,8.27
2023-03-20T14:19:21.955Z,13.25
2023-03-20T14:21:53.663Z,9.85
2023-03-20T14:24:24.379Z,9.48
2023-03-20T14:27:05.900Z,9.40
2023-03-20T14:29:39.174Z,12.32
2023-03-20T14:32:13.992Z,12.00
2023-03-20T14:35:19.037Z,16.33
2023-03-20T14:38:23.829Z,11.07
2023-03-20T14:40:58.204Z,13.30
2023-03-20T14:43:59.812Z,8.65
2023-03-20T14:46:39.565Z,11.82
2023-03-20T14:49:48.744Z,10.77
2023-03-20T14:52:59.495Z,16.98
2023-03-20T14:55:28.321Z,15.02
2023-03-20T14:57:57.310Z,16.55
2023-03-20T15:00:34.319Z,17.38
2023-03-20T15:03:12.026Z,18.65
2023-03-20T15:05:40.743Z,18.80
2023-03-20T15:08:19.527Z,15.20
2023-03-20T15:11:02.319Z,13.13
2023-03-20T15:13:31.406Z,18.13
2023-03-20T15:16:11.236Z,14.55
2023-03-20T15:18:47.339Z,16.38
2023-03-20T15:21:37.108Z,32.70
2023-03-20T15:24:06.790Z,18.13
2023-03-20T15:26:36.808Z,19.00
2023-03-20T15:29:08.514Z,21.98
2023-03-20T15:31:40.207Z,17.27
2023-03-20T15:34:16.076Z,17.30
2023-03-20T15:36:48.385Z,17.70
2023-03-20T15:39:25.071Z,17.80
2023-03-20T15:42:00.411Z,15.85
2023-03-20T15:44:36.904Z,20.58
2023-03-20T15:47:12.774Z,18.63
2023-03-20T15:49:41.943Z,18.90
2023-03-20T15:52:31.013Z,19.15
2023-03-20T15:55:03.909Z,19.70
2023-03-20T15:57:45.382Z,20.67
2023-03-20T16:00:17.113Z,19.73
2023-03-20T16:02:48.541Z,20.05
2023-03-20T16:05:18.747Z,18.73
2023-03-20T16:07:46.850Z,17.02
2023-03-20T16:10:20.042Z,20.65
2023-03-20T16:12:54.949Z,22.60
2023-03-20T16:15:27.789Z,18.10
2023-03-20T16:20:28.976Z,22.40
2023-03-20T16:23:03.871Z,23.77
2023-03-20T16:25:31.672Z,26.50
2023-03-20T16:28:00.130Z,25.35
2023-03-20T16:30:31.998Z,22.30
2023-03-20T16:33:05.742Z,24.05
2023-03-20T16:35:40.434Z,25.88
2023-03-20T16:38:33.054Z,19.60
2023-03-20T16:41:29.540Z,21.15
2023-03-20T16:43:58.012Z,22.33
2023-03-20T16:46:27.583Z,24.38
2023-03-20T16:49:17.739Z,20.00
2023-03-20T16:51:45.249Z,22.33
2023-03-20T16:54:21.710Z,20.67
2023-03-20T16:56:54.421Z,24.33
2023-03-20T16:59:22.904Z,17.98
2023-03-20T17:01:53.125Z,21.25
2023-03-20T17:04:24.380Z,20.73
2023-03-20T17:06:59.059Z,19.10
2023-03-20T17:09:30.545Z,23.88
2023-03-20T17:12:05.340Z,20.75
2023-03-20T17:14:33.282Z,27.02
2023-03-20T17:17:00.524Z,22.55
2023-03-20T17:19:27.664Z,19.83
2023-03-20T17:21:55.046Z,23.60
2023-03-20T17:24:22.370Z,22.27
2023-03-20T17:26:55.473Z,23.27
2023-03-20T17:29:22.830Z,19.20
2023-03-20T17:31:50.416Z,23.90
2023-03-20T17:34:17.653Z,21.85
2023-03-20T17:36:44.826Z,18.95
2023-03-20T17:39:21.113Z,26.33
2023-03-20T17:41:48.750Z,23.85
2023-03-20T17:44:15.839Z,24.95
2023-03-20T17:46:56.731Z,25.25
2023-03-20T17:49:27.749Z,29.67
2023-03-20T17:51:57.076Z,28.77
2023-03-20T17:54:24.417Z,31.92
2023-03-20T17:56:51.679Z,34.13
2023-03-20T17:59:18.921Z,36.78
2023-03-20T18:01:46.461Z,27.88
2023-03-20T18:04:14.083Z,31.02
2023-03-20T18:06:41.604Z,45.47
2023-03-20T18:09:13.704Z,35.15
2023-03-20T18:11:41.286Z,34.45
2023-03-20T18:14:08.527Z,38.50
2023-03-20T18:16:35.804Z,39.15
2023-03-20T18:19:03.873Z,35.17
2023-03-20T18:21:31.224Z,28.95
2023-03-20T18:23:58.289Z,34.75
2023-03-20T18:26:27.605Z,36.17
2023-03-20T18:28:57.451Z,39.55
2023-03-20T18:31:24.873Z,36.80
2023-03-20T18:33:53.316Z,40.40
2023-03-20T18:36:23.143Z,42.35
2023-03-20T18:38:51.830Z,33.90
2023-03-20T18:41:19.519Z,37.42
2023-03-20T18:43:49.149Z,37.85
2023-03-20T18:46:19.326Z,31.65
2023-03-20T18:48:47.850Z,37.58
2023-03-20T18:51:15.511Z,38.53
2023-03-20T18:53:43.092Z,30.92
2023-03-20T18:56:14.770Z,39.13
2023-03-20T18:58:42.572Z,35.63
2023-03-20T19:01:12.988Z,40.97
2023-03-20T19:03:42.883Z,35.17
2023-03-20T19:06:16.822Z,37.92
2023-03-20T19:08:45.325Z,30.02
2023-03-20T19:11:17.835Z,34.00
2023-03-20T19:13:49.743Z,29.67
2023-03-20T19:16:28.616Z,33.05
2023-03-20T19:18:59.098Z,30.85
2023-03-20T19:21:26.766Z,26.33
2023-03-20T19:23:55.570Z,32.95
2023-03-20T19:26:24.903Z,25.70
2023-03-20T19:28:54.024Z,30.70
2023-03-20T19:31:21.836Z,28.98
2023-03-20T19:33:49.300Z,23.92
2023-03-20T19:36:31.708Z,23.75
2023-03-20T19:39:01.689Z,26.10
2023-03-20T19:41:29.440Z,32.67
2023-03-20T19:43:57.115Z,26.60
2023-03-20T19:46:42.533Z,29.83
2023-03-20T19:49:30.168Z,25.13
2023-03-20T19:51:58.284Z,22.63
2023-03-20T19:54:25.526Z,25.05
2023-03-20T19:56:52.774Z,25.77
2023-03-20T19:59:21.108Z,27.40
2023-03-20T20:01:48.493Z,23.63
2023-03-20T20:04:16.459Z,29.65
2023-03-20T20:06:46.651Z,27.83
2023-03-20T20:09:14.646Z,26.63
2023-03-20T20:11:41.715Z,62.38
2023-03-20T20:14:10.339Z,76.35
2023-03-20T20:16:42.773Z,69.97
2023-03-20T20:19:10.445Z,53.20
2023-03-20T20:24:25.544Z,44.28
2023-03-20T20:27:14.574Z,36.58
2023-03-20T20:29:43.332Z,33.53
2023-03-20T20:32:11.058Z,36.97
2023-03-20T20:35:30.770Z,27.13
2023-03-20T20:40:17.278Z,31.98
2023-03-20T20:42:47.528Z,39.60
2023-03-20T20:45:15.712Z,35.80
2023-03-20T20:47:47.230Z,35.60
2023-03-20T20:50:16.798Z,34.95
2023-03-20T20:52:44.553Z,32.08
2023-03-20T20:55:22.498Z,31.38
2023-03-20T20:57:53.188Z,37.38
2023-03-20T21:00:27.447Z,36.80
2023-03-20T21:02:58.704Z,30.38
2023-03-20T21:05:27.176Z,26.98
2023-03-20T21:07:54.591Z,30.17
2023-03-20T21:10:22.365Z,29.25
2023-03-20T21:12:59.170Z,22.42
2023-03-20T21:15:29.979Z,30.80
2023-03-20T21:18:01.504Z,33.83
2023-03-20T21:20:30.835Z,29.90
2023-03-20T21:22:58.835Z,31.88
2023-03-20T21:25:39.070Z,32.60
2023-03-20T21:28:07.444Z,28.38
2023-03-20T21:30:34.657Z,31.42
2023-03-20T21:33:03.341Z,29.35
2023-03-20T21:35:30.697Z,33.60
2023-03-20T21:38:47.541Z,37.45
2023-03-20T21:40:45.607Z,35.08
2023-03-20T21:43:14.445Z,35.30
2023-03-20T21:49:22.879Z,38.88
2023-03-20T21:52:28.931Z,39.25
2023-03-20T22:00:14.990Z,31.55
2023-03-20T22:02:29.046Z,30.30
2023-03-20T22:08:57.854Z,27.30
2023-03-20T22:19:56.229Z,36.55
2023-03-20T22:22:56.333Z,33.38
2023-03-20T22:31:10.625Z,36.42
2023-03-20T22:36:37.833Z,33.80
2023-03-20T22:39:16.044Z,35.58
2023-03-20T22:42:12.393Z,29.50
2023-03-20T22:46:59.468Z,33.10
2023-03-20T22:49:26.730Z,32.72
2023-03-20T22:52:14.802Z,32.85
2023-03-20T22:54:41.924Z,30.63
2023-03-20T22:57:09.430Z,40.65
2023-03-20T22:59:36.786Z,38.42
2023-03-20T23:02:04.161Z,35.17
2023-03-20T23:04:31.153Z,37.72
2023-03-20T23:06:58.416Z,37.72
2023-03-20T23:09:25.432Z,36.63
2023-03-20T23:11:52.606Z,33.65
2023-03-20T23:14:22.004Z,36.75
2023-03-20T23:16:50.420Z,35.65
2023-03-20T23:19:17.713Z,33.80
2023-03-20T23:21:45.018Z,32.50
2023-03-20T23:24:12.194Z,32.00
2023-03-20T23:26:39.315Z,42.72
2023-03-20T23:29:06.790Z,38.72
2023-03-20T23:31:36.990Z,37.97
2023-03-20T23:34:04.059Z,35.17
2023-03-20T23:36:38.246Z,32.10
2023-03-20T23:39:07.895Z,33.60
2023-03-20T23:42:04.675Z,41.60
2023-03-20T23:44:23.504Z,34.90
2023-03-20T23:46:50.786Z,35.25
2023-03-20T23:49:17.903Z,28.27
2023-03-20T23:51:44.943Z,34.67
2023-03-20T23:54:12.581Z,30.67
2023-03-20T23:56:40.420Z,42.33
2023-03-20T23:59:20.493Z,40.03
